createdAt,value
2019-04-28T00:00:54.301Z,90.40
2019-04-28T00:03:23.472Z,91.30
2019-04-28T00:05:52.854Z,92.20
2019-04-28T00:08:22.031Z,92.00
2019-04-28T00:10:53.151Z,91.50
2019-04-28T00:13:22.021Z,93.40
2019-04-28T00:15:51.950Z,92.60
2019-04-28T00:18:21.950Z,92.30
2019-04-28T00:21:16.418Z,93.30
2019-04-28T00:23:53.522Z,91.80
2019-04-28T00:26:37.436Z,93.20
2019-04-28T00:29:06.862Z,93.10
2019-04-28T00:31:36.140Z,93.10
2019-04-28T00:34:05.950Z,92.90
2019-04-28T00:36:35.303Z,92.40
2019-04-28T00:39:06.205Z,93.80
2019-04-28T00:41:35.413Z,94.20
2019-04-28T00:44:04.571Z,93.90
2019-04-28T00:46:35.820Z,93.30
2019-04-28T00:49:05.304Z,93.90
2019-04-28T00:51:34.439Z,94.30
2019-04-28T00:54:03.571Z,93.60
2019-04-28T00:56:33.251Z,93.70
2019-04-28T00:59:02.459Z,94.40
2019-04-28T01:01:46.867Z,93.70
2019-04-28T01:04:16.140Z,94.10
2019-04-28T01:06:45.266Z,93.70
2019-04-28T01:09:14.670Z,93.50
2019-04-28T01:11:43.885Z,93.00
2019-04-28T01:14:13.104Z,93.40
2019-04-28T01:16:49.814Z,93.30
2019-04-28T01:19:24.436Z,93.40
2019-04-28T01:22:13.082Z,94.10
2019-04-28T01:24:42.509Z,93.30
2019-04-28T01:27:26.010Z,94.20
2019-04-28T01:30:05.501Z,93.10
2019-04-28T01:32:39.895Z,93.20
2019-04-28T01:35:09.818Z,92.90
2019-04-28T01:37:40.602Z,94.00
2019-04-28T01:40:10.548Z,94.30
2019-04-28T01:42:41.245Z,94.60
2019-04-28T01:45:10.673Z,93.70
2019-04-28T01:47:40.499Z,94.20
2019-04-28T01:50:11.526Z,94.10
2019-04-28T01:52:40.653Z,93.30
2019-04-28T01:55:10.254Z,94.90
2019-04-28T01:57:40.095Z,94.50
2019-04-28T02:00:22.988Z,96.50
2019-04-28T02:02:44.569Z,95.00
2019-04-28T02:05:14.294Z,95.70
2019-04-28T02:07:43.502Z,95.90
2019-04-28T02:10:13.298Z,96.30
2019-04-28T02:12:42.458Z,97.00
2019-04-28T02:15:11.631Z,97.10
2019-04-28T02:17:40.783Z,96.30
2019-04-28T02:20:10.570Z,96.80
2019-04-28T02:22:45.757Z,97.70
2019-04-28T02:25:14.970Z,97.10
2019-04-28T02:27:44.114Z,98.10
2019-04-28T02:30:13.884Z,98.20
2019-04-28T02:32:43.085Z,99.80
2019-04-28T02:35:13.058Z,99.50
2019-04-28T02:37:42.236Z,99.90
2019-04-28T02:40:11.715Z,99.90
2019-04-28T02:42:41.193Z,99.90
2019-04-28T02:45:11.924Z,99.90
2019-04-28T02:47:42.272Z,99.90
2019-04-28T02:50:46.430Z,99.90
2019-04-28T02:53:27.358Z,99.90
2019-04-28T02:55:56.588Z,99.90
2019-04-28T02:58:25.800Z,99.90
2019-04-28T03:01:06.639Z,99.90
2019-04-28T03:03:25.998Z,99.90
2019-04-28T03:05:55.145Z,99.90
2019-04-28T03:08:24.270Z,99.90
2019-04-28T03:10:53.438Z,99.90
2019-04-28T03:13:22.576Z,99.90
2019-04-28T03:15:51.962Z,99.90
2019-04-28T03:18:21.596Z,99.90
2019-04-28T03:20:51.768Z,99.90
2019-04-28T03:23:21.627Z,99.90
2019-04-28T03:26:11.146Z,99.90
2019-04-28T03:29:10.707Z,99.90
2019-04-28T03:32:22.781Z,99.90
2019-04-28T03:34:44.604Z,99.90
2019-04-28T03:37:14.108Z,99.90
2019-04-28T03:39:43.313Z,99.90
2019-04-28T03:42:12.459Z,99.90
2019-04-28T03:44:41.739Z,99.90
2019-04-28T03:47:11.229Z,99.90
2019-04-28T03:49:43.199Z,99.90
2019-04-28T03:52:11.273Z,99.90
2019-04-28T03:54:41.140Z,99.90
2019-04-28T03:57:11.514Z,99.90
2019-04-28T03:59:43.479Z,99.90
2019-04-28T04:02:12.097Z,99.90
2019-04-28T04:04:41.595Z,99.90
2019-04-28T04:07:11.350Z,99.90
2019-04-28T04:09:51.505Z,99.90
2019-04-28T04:12:36.538Z,99.90
2019-04-28T04:15:25.628Z,99.90
2019-04-28T04:18:03.723Z,99.90
2019-04-28T04:20:32.915Z,99.90
2019-04-28T04:23:02.047Z,99.90
2019-04-28T04:25:31.557Z,99.90
2019-04-28T04:28:03.848Z,99.90
2019-04-28T04:30:31.767Z,99.90
2019-04-28T04:33:01.500Z,99.90
2019-04-28T04:35:31.647Z,99.90
2019-04-28T04:38:01.224Z,99.90
2019-04-28T04:40:31.868Z,99.90
2019-04-28T04:43:01.844Z,99.90
2019-04-28T04:45:31.380Z,99.90
2019-04-28T04:48:00.943Z,99.90
2019-04-28T04:50:31.440Z,99.90
2019-04-28T04:53:02.614Z,99.90
2019-04-28T04:55:32.369Z,99.90
2019-04-28T04:58:01.525Z,99.90
2019-04-28T05:00:56.818Z,99.90
2019-04-28T05:03:31.245Z,99.90
2019-04-28T05:06:00.414Z,99.90
2019-04-28T05:08:30.163Z,99.90
2019-04-28T05:11:00.083Z,99.90
2019-04-28T05:13:30.003Z,99.90
2019-04-28T05:15:59.862Z,99.90
2019-04-28T05:18:29.704Z,99.90
2019-04-28T05:20:59.513Z,99.90
2019-04-28T05:23:44.695Z,99.90
2019-04-28T05:26:13.872Z,99.90
2019-04-28T05:28:50.505Z,99.90
2019-04-28T05:31:20.666Z,99.90
2019-04-28T05:33:45.061Z,99.90
2019-04-28T05:36:14.263Z,99.90
2019-04-28T05:38:43.469Z,99.90
2019-04-28T05:41:12.637Z,99.90
2019-04-28T05:43:41.778Z,99.90
2019-04-28T05:46:10.900Z,99.90
2019-04-28T05:48:51.182Z,99.90
2019-04-28T05:51:21.566Z,99.90
2019-04-28T05:53:56.790Z,99.90
2019-04-28T05:56:35.206Z,99.90
2019-04-28T05:59:30.004Z,99.90
2019-04-28T06:02:10.598Z,99.90
2019-04-28T06:04:41.028Z,99.90
2019-04-28T06:07:17.632Z,99.90
2019-04-28T06:09:50.125Z,99.90
2019-04-28T06:12:20.135Z,99.90
2019-04-28T06:14:50.190Z,99.90
2019-04-28T06:17:20.636Z,99.90
2019-04-28T06:19:50.509Z,99.90
2019-04-28T06:22:19.858Z,99.90
2019-04-28T06:24:49.221Z,99.90
2019-04-28T06:27:18.350Z,99.90
2019-04-28T06:29:47.488Z,99.90
2019-04-28T06:32:16.669Z,99.90
2019-04-28T06:34:45.814Z,99.90
2019-04-28T06:37:14.951Z,99.90
2019-04-28T06:39:47.118Z,99.90
2019-04-28T06:42:15.118Z,99.90
2019-04-28T06:44:44.251Z,99.90
2019-04-28T06:47:16.487Z,99.90
2019-04-28T06:49:44.574Z,99.90
2019-04-28T06:52:13.849Z,99.90
2019-04-28T06:54:43.022Z,99.90
2019-04-28T06:57:12.167Z,99.90
2019-04-28T06:59:41.307Z,99.90
2019-04-28T07:02:10.525Z,99.90
2019-04-28T07:04:39.673Z,99.90
2019-04-28T07:07:08.842Z,99.90
2019-04-28T07:09:38.078Z,99.90
2019-04-28T07:12:07.208Z,99.90
2019-04-28T07:14:36.422Z,99.90
2019-04-28T07:17:05.581Z,99.90
2019-04-28T07:19:34.729Z,98.50
2019-04-28T07:22:12.323Z,95.40
2019-04-28T07:24:41.442Z,97.60
2019-04-28T07:27:10.644Z,95.90
2019-04-28T07:29:39.830Z,98.90
2019-04-28T07:32:09.035Z,98.40
2019-04-28T07:34:38.177Z,95.40
2019-04-28T07:37:07.478Z,96.30
2019-04-28T07:39:36.619Z,96.50
2019-04-28T07:42:05.827Z,99.10
2019-04-28T07:44:35.157Z,99.40
2019-04-28T07:47:04.971Z,97.80
2019-04-28T07:49:34.266Z,99.90
2019-04-28T07:52:21.834Z,99.90
2019-04-28T07:54:51.038Z,99.90
2019-04-28T07:57:20.299Z,99.90
2019-04-28T07:59:49.735Z,99.90
2019-04-28T08:02:19.057Z,99.90
2019-04-28T08:04:48.269Z,99.90
2019-04-28T08:07:17.594Z,99.90
2019-04-28T08:09:46.769Z,99.90
2019-04-28T08:12:15.991Z,99.90
2019-04-28T08:14:45.148Z,99.90
2019-04-28T08:17:14.470Z,99.90
2019-04-28T08:19:43.766Z,99.90
2019-04-28T08:22:12.945Z,99.90
2019-04-28T08:24:42.180Z,99.90
2019-04-28T08:27:11.320Z,99.90
2019-04-28T08:29:40.485Z,99.90
2019-04-28T08:32:31.887Z,99.90
2019-04-28T08:35:01.161Z,99.60
2019-04-28T08:37:30.314Z,98.40
2019-04-28T08:39:59.620Z,99.80
2019-04-28T08:42:29.197Z,98.90
2019-04-28T08:44:58.404Z,99.30
2019-04-28T08:47:27.671Z,99.90
2019-04-28T08:49:56.931Z,99.90
2019-04-28T08:52:26.066Z,96.90
2019-04-28T08:54:55.288Z,99.70
2019-04-28T08:57:24.746Z,97.10
2019-04-28T08:59:54.019Z,99.90
2019-04-28T09:02:23.330Z,99.90
2019-04-28T09:04:52.511Z,99.90
2019-04-28T09:07:21.676Z,99.90
2019-04-28T09:09:50.887Z,99.90
2019-04-28T09:12:20.090Z,99.90
2019-04-28T09:14:49.224Z,99.90
2019-04-28T09:17:18.523Z,99.90
2019-04-28T09:19:47.790Z,99.90
2019-04-28T09:22:16.934Z,99.90
2019-04-28T09:24:46.157Z,99.90
2019-04-28T09:27:15.821Z,99.90
2019-04-28T09:29:45.028Z,99.90
2019-04-28T09:32:14.151Z,99.90
2019-04-28T09:34:43.438Z,99.90
2019-04-28T09:37:12.706Z,99.90
2019-04-28T09:39:49.131Z,99.70
2019-04-28T09:42:35.884Z,97.40
2019-04-28T09:45:09.817Z,91.70
2019-04-28T09:47:39.110Z,94.50
2019-04-28T09:50:08.390Z,93.10
2019-04-28T09:52:37.571Z,92.10
2019-04-28T09:55:06.793Z,93.40
2019-04-28T09:57:35.938Z,89.50
2019-04-28T10:00:06.397Z,84.80
2019-04-28T10:02:35.527Z,87.00
2019-04-28T10:05:04.923Z,84.20
2019-04-28T10:07:34.286Z,79.90
2019-04-28T10:10:03.936Z,85.00
2019-04-28T10:12:33.261Z,87.20
2019-04-28T10:15:02.524Z,86.40
2019-04-28T10:17:31.666Z,90.60
2019-04-28T10:20:00.833Z,88.10
2019-04-28T10:22:30.187Z,86.00
2019-04-28T10:24:59.401Z,86.40
2019-04-28T10:27:28.535Z,86.90
2019-04-28T10:29:57.803Z,84.30
2019-04-28T10:32:27.025Z,84.20
2019-04-28T10:34:56.443Z,90.80
2019-04-28T10:37:25.627Z,92.80
2019-04-28T10:39:58.699Z,94.80
2019-04-28T10:42:28.052Z,96.00
2019-04-28T10:44:57.578Z,94.60
2019-04-28T10:47:27.008Z,95.40
2019-04-28T10:49:56.357Z,90.20
2019-04-28T10:52:25.598Z,86.50
2019-04-28T10:54:54.811Z,87.00
2019-04-28T10:57:23.956Z,80.20
2019-04-28T10:59:53.202Z,79.70
2019-04-28T11:02:22.351Z,82.40
2019-04-28T11:05:07.818Z,80.30
2019-04-28T11:07:27.798Z,82.00
2019-04-28T11:10:03.110Z,79.50
2019-04-28T11:12:32.450Z,78.40
2019-04-28T11:15:02.709Z,78.00
2019-04-28T11:17:31.900Z,76.90
2019-04-28T11:20:01.051Z,78.30
2019-04-28T11:22:30.269Z,77.90
2019-04-28T11:24:59.469Z,77.10
2019-04-28T11:27:28.947Z,76.20
2019-04-28T11:29:58.087Z,74.70
2019-04-28T11:32:27.326Z,76.30
2019-04-28T11:35:21.944Z,72.10
2019-04-28T11:37:46.639Z,71.70
2019-04-28T11:40:15.787Z,74.30
2019-04-28T11:42:45.014Z,78.70
2019-04-28T11:45:14.918Z,70.70
2019-04-28T11:47:44.084Z,70.00
2019-04-28T11:50:14.143Z,68.70
2019-04-28T11:52:43.698Z,65.80
2019-04-28T11:55:13.031Z,65.20
2019-04-28T11:57:42.249Z,68.00
2019-04-28T12:00:34.380Z,64.70
2019-04-28T12:03:03.534Z,62.70
2019-04-28T12:05:41.957Z,65.40
2019-04-28T12:08:11.080Z,64.20
2019-04-28T12:10:45.944Z,66.60
2019-04-28T12:13:33.008Z,65.70
2019-04-28T12:16:29.920Z,63.90
2019-04-28T12:19:16.568Z,63.10
2019-04-28T12:21:45.817Z,61.40
2019-04-28T12:24:15.037Z,59.50
2019-04-28T12:26:44.178Z,61.90
2019-04-28T12:29:13.450Z,63.60
2019-04-28T12:31:42.589Z,69.10
2019-04-28T12:34:11.850Z,73.40
2019-04-28T12:36:41.027Z,65.10
2019-04-28T12:39:10.163Z,62.10
2019-04-28T12:41:39.305Z,62.90
2019-04-28T12:44:08.502Z,60.20
2019-04-28T12:46:37.717Z,62.30
2019-04-28T12:49:14.274Z,65.10
2019-04-28T12:51:43.437Z,67.30
2019-04-28T12:54:14.482Z,67.70
2019-04-28T12:56:43.726Z,66.50
2019-04-28T12:59:18.127Z,62.40
2019-04-28T13:01:57.677Z,56.40
2019-04-28T13:04:31.714Z,60.60
2019-04-28T13:07:08.888Z,59.10
2019-04-28T13:09:38.101Z,61.10
2019-04-28T13:12:07.421Z,58.00
2019-04-28T13:14:36.690Z,59.10
2019-04-28T13:17:05.917Z,57.80
2019-04-28T13:19:35.047Z,55.80
2019-04-28T13:22:05.611Z,53.70
2019-04-28T13:24:35.287Z,53.30
2019-04-28T13:27:04.615Z,53.20
2019-04-28T13:29:33.843Z,49.70
2019-04-28T13:32:03.106Z,53.40
2019-04-28T13:34:33.932Z,53.20
2019-04-28T13:37:03.159Z,52.90
2019-04-28T13:39:37.865Z,47.50
2019-04-28T13:42:07.113Z,48.60
2019-04-28T13:44:52.433Z,52.80
2019-04-28T13:47:22.029Z,47.70
2019-04-28T13:49:54.791Z,51.00
2019-04-28T13:52:24.110Z,49.00
2019-04-28T13:54:56.573Z,44.30
2019-04-28T13:57:25.784Z,44.10
2019-04-28T13:59:58.782Z,50.30
2019-04-28T14:02:47.044Z,46.80
2019-04-28T14:05:35.507Z,48.50
2019-04-28T14:08:04.798Z,46.30
2019-04-28T14:10:33.948Z,49.00
2019-04-28T14:13:03.154Z,53.00
2019-04-28T14:15:32.363Z,53.30
2019-04-28T14:18:01.584Z,58.70
2019-04-28T14:20:30.795Z,62.10
2019-04-28T14:23:00.050Z,62.00
2019-04-28T14:25:29.222Z,67.00
2019-04-28T14:27:58.583Z,66.20
2019-04-28T14:30:27.852Z,72.20
2019-04-28T14:32:57.067Z,75.50
2019-04-28T14:35:26.213Z,84.40
2019-04-28T14:37:55.395Z,84.80
2019-04-28T14:40:24.723Z,82.10
2019-04-28T14:42:53.997Z,85.50
2019-04-28T14:45:23.362Z,77.20
2019-04-28T14:47:52.527Z,87.00
2019-04-28T14:50:21.678Z,88.70
2019-04-28T14:52:50.863Z,95.40
2019-04-28T14:55:20.044Z,99.90
2019-04-28T14:57:49.834Z,95.70
2019-04-28T15:00:24.019Z,93.60
2019-04-28T15:02:58.282Z,99.60
2019-04-28T15:05:49.271Z,99.90
2019-04-28T15:08:36.314Z,99.90
2019-04-28T15:11:14.090Z,99.90
2019-04-28T15:13:43.493Z,99.90
2019-04-28T15:16:12.763Z,99.90
2019-04-28T15:18:42.188Z,99.90
2019-04-28T15:21:11.443Z,99.90
2019-04-28T15:23:40.889Z,99.90
2019-04-28T15:26:10.166Z,99.90
2019-04-28T15:28:39.463Z,99.90
2019-04-28T15:31:08.614Z,99.90
2019-04-28T15:33:37.771Z,99.90
2019-04-28T15:36:06.915Z,99.90
2019-04-28T15:38:36.064Z,99.90
2019-04-28T15:41:05.527Z,99.90
2019-04-28T15:43:34.786Z,99.90
2019-04-28T15:46:04.007Z,99.90
2019-04-28T15:48:33.196Z,99.90
2019-04-28T15:51:02.421Z,99.90
2019-04-28T15:53:33.126Z,99.90
2019-04-28T15:56:21.200Z,99.90
2019-04-28T15:58:50.352Z,99.90
2019-04-28T16:01:19.577Z,99.90
2019-04-28T16:03:48.754Z,99.90
2019-04-28T16:06:17.893Z,99.90
2019-04-28T16:08:47.117Z,99.90
2019-04-28T16:11:16.307Z,99.90
2019-04-28T16:13:45.448Z,99.90
2019-04-28T16:16:14.594Z,94.40
2019-04-28T16:18:43.780Z,94.20
2019-04-28T16:21:13.009Z,90.00
2019-04-28T16:23:42.466Z,82.40
2019-04-28T16:26:11.626Z,72.80
2019-04-28T16:28:40.916Z,67.50
2019-04-28T16:31:10.059Z,64.50
2019-04-28T16:33:39.236Z,62.50
2019-04-28T16:36:08.508Z,58.30
2019-04-28T16:38:37.793Z,57.30
2019-04-28T16:41:07.146Z,56.60
2019-04-28T16:43:44.325Z,55.00
2019-04-28T16:46:13.494Z,54.50
2019-04-28T16:48:42.643Z,56.40
2019-04-28T16:51:14.530Z,56.90
2019-04-28T16:53:42.684Z,61.80
2019-04-28T16:56:36.676Z,63.60
2019-04-28T16:59:23.502Z,61.00
2019-04-28T17:01:57.417Z,59.30
2019-04-28T17:04:26.767Z,54.90
2019-04-28T17:06:55.921Z,57.40
2019-04-28T17:09:25.250Z,55.10
2019-04-28T17:11:54.480Z,55.50
2019-04-28T17:14:23.868Z,51.00
2019-04-28T17:16:53.014Z,49.20
2019-04-28T17:19:22.260Z,50.40
2019-04-28T17:21:51.552Z,54.60
2019-04-28T17:24:20.819Z,57.90
2019-04-28T17:26:50.019Z,66.00
2019-04-28T17:29:19.168Z,59.40
2019-04-28T17:31:48.392Z,71.60
2019-04-28T17:34:17.646Z,81.40
2019-04-28T17:36:47.213Z,76.20
2019-04-28T17:39:22.198Z,73.70
2019-04-28T17:41:51.379Z,80.50
2019-04-28T17:44:20.702Z,81.10
2019-04-28T17:46:49.945Z,83.50
2019-04-28T17:49:24.018Z,84.40
2019-04-28T17:51:53.184Z,88.00
2019-04-28T17:54:22.324Z,92.30
2019-04-28T17:56:51.461Z,89.90
2019-04-28T17:59:20.633Z,92.40
2019-04-28T18:02:17.907Z,94.10
2019-04-28T18:05:00.331Z,95.30
2019-04-28T18:07:32.110Z,96.90
2019-04-28T18:10:01.576Z,97.30
2019-04-28T18:12:30.798Z,96.40
2019-04-28T18:15:14.787Z,96.50
2019-04-28T18:17:52.227Z,97.20
2019-04-28T18:20:21.464Z,96.90
2019-04-28T18:22:50.613Z,94.50
2019-04-28T18:25:21.566Z,91.60
2019-04-28T18:27:50.703Z,91.00
2019-04-28T18:30:22.574Z,90.40
2019-04-28T18:33:13.941Z,93.10
2019-04-28T18:35:46.239Z,93.10
2019-04-28T18:38:34.019Z,96.00
2019-04-28T18:41:14.130Z,93.40
2019-04-28T18:44:20.623Z,95.00
2019-04-28T18:46:49.951Z,95.80
2019-04-28T18:49:19.246Z,96.10
2019-04-28T18:51:48.545Z,97.40
2019-04-28T18:54:17.711Z,99.90
2019-04-28T18:56:46.854Z,99.90
2019-04-28T18:59:16.038Z,99.90
2019-04-28T19:01:51.470Z,99.90
2019-04-28T19:04:20.765Z,99.90
2019-04-28T19:07:03.868Z,99.90
2019-04-28T19:09:40.327Z,99.90
2019-04-28T19:12:29.618Z,99.90
2019-04-28T19:15:20.603Z,99.90
2019-04-28T19:17:59.280Z,99.90
2019-04-28T19:20:28.470Z,99.90
2019-04-28T19:22:57.617Z,99.90
2019-04-28T19:25:26.808Z,99.90
2019-04-28T19:27:56.068Z,99.90
2019-04-28T19:30:25.284Z,99.90
2019-04-28T19:32:54.430Z,99.90
2019-04-28T19:35:23.608Z,99.90
2019-04-28T19:37:52.760Z,99.90
2019-04-28T19:40:21.903Z,99.90
2019-04-28T19:42:51.089Z,99.90
2019-04-28T19:45:21.227Z,99.90
2019-04-28T19:47:50.559Z,99.90
2019-04-28T19:50:19.736Z,99.90
2019-04-28T19:52:48.953Z,99.90
2019-04-28T19:55:25.492Z,99.90
2019-04-28T19:58:07.759Z,99.90
2019-04-28T20:00:44.674Z,99.90
2019-04-28T20:03:13.819Z,99.90
2019-04-28T20:05:42.969Z,99.90
2019-04-28T20:08:12.459Z,99.90
2019-04-28T20:10:41.677Z,99.90
2019-04-28T20:13:10.832Z,99.90
2019-04-28T20:15:39.984Z,99.90
2019-04-28T20:18:09.197Z,99.90
2019-04-28T20:20:38.350Z,99.90
2019-04-28T20:23:07.550Z,99.90
2019-04-28T20:25:36.688Z,99.90
2019-04-28T20:28:05.816Z,99.90
2019-04-28T20:30:34.998Z,99.90
2019-04-28T20:33:07.281Z,99.90
2019-04-28T20:35:37.726Z,99.90
2019-04-28T20:38:22.426Z,99.90
2019-04-28T20:41:10.600Z,99.90
2019-04-28T20:43:39.860Z,99.90
2019-04-28T20:46:09.005Z,99.90
2019-04-28T20:48:38.329Z,99.90
2019-04-28T20:51:07.670Z,99.90
2019-04-28T20:53:36.834Z,99.90
2019-04-28T20:56:05.970Z,99.90
2019-04-28T20:58:35.468Z,99.90
2019-04-28T21:01:04.947Z,99.90
2019-04-28T21:03:34.075Z,99.90
2019-04-28T21:06:03.239Z,99.90
2019-04-28T21:08:32.406Z,99.90
2019-04-28T21:11:01.614Z,99.90
2019-04-28T21:13:30.782Z,99.90
2019-04-28T21:16:00.007Z,99.90
2019-04-28T21:18:29.213Z,99.90
2019-04-28T21:20:58.426Z,99.90
2019-04-28T21:23:27.649Z,99.90
2019-04-28T21:25:56.782Z,99.90
2019-04-28T21:28:25.953Z,99.90
2019-04-28T21:30:55.092Z,99.90
2019-04-28T21:33:24.305Z,99.90
2019-04-28T21:35:53.473Z,99.90
2019-04-28T21:38:22.595Z,99.90
2019-04-28T21:40:51.999Z,99.90
2019-04-28T21:43:32.540Z,99.90
2019-04-28T21:46:17.343Z,99.90
2019-04-28T21:49:00.395Z,99.90
2019-04-28T21:51:29.527Z,99.90
2019-04-28T21:53:58.934Z,99.90
2019-04-28T21:56:28.082Z,99.90
2019-04-28T21:58:57.222Z,99.90
2019-04-28T22:01:26.627Z,99.90
2019-04-28T22:03:55.870Z,99.90
2019-04-28T22:06:25.006Z,99.90
2019-04-28T22:08:54.126Z,99.90
2019-04-28T22:11:23.376Z,99.90
2019-04-28T22:13:52.508Z,99.90
2019-04-28T22:16:21.719Z,99.90
2019-04-28T22:18:50.884Z,99.90
2019-04-28T22:21:20.176Z,99.90
2019-04-28T22:24:04.670Z,99.90
2019-04-28T22:26:47.216Z,99.90
2019-04-28T22:29:16.375Z,99.90
2019-04-28T22:31:46.270Z,99.90
2019-04-28T22:34:16.088Z,99.90
2019-04-28T22:36:46.043Z,99.90
2019-04-28T22:39:16.309Z,99.90
2019-04-28T22:41:46.114Z,99.90
2019-04-28T22:44:15.266Z,99.90
2019-04-28T22:46:44.395Z,99.90
2019-04-28T22:49:13.817Z,99.90
2019-04-28T22:51:42.986Z,99.90
2019-04-28T22:54:23.974Z,99.90
2019-04-28T22:57:07.259Z,99.90
2019-04-28T22:59:40.586Z,99.90
2019-04-28T23:02:13.612Z,99.90
2019-04-28T23:04:51.732Z,99.90
2019-04-28T23:07:21.003Z,99.90
2019-04-28T23:09:50.189Z,99.90
2019-04-28T23:12:19.724Z,99.90
2019-04-28T23:14:49.076Z,99.90
2019-04-28T23:17:19.790Z,99.90
2019-04-28T23:19:48.924Z,99.90
2019-04-28T23:22:45.935Z,99.90
2019-04-28T23:25:04.270Z,99.90
2019-04-28T23:27:33.420Z,99.90
2019-04-28T23:30:03.049Z,99.90
2019-04-28T23:32:32.178Z,99.90
2019-04-28T23:35:01.374Z,99.90
2019-04-28T23:37:30.535Z,99.90
2019-04-28T23:39:59.734Z,99.90
2019-04-28T23:42:36.572Z,99.90
2019-04-28T23:45:06.418Z,99.90
2019-04-28T23:47:35.548Z,99.90
2019-04-28T23:50:06.295Z,99.90
2019-04-28T23:52:49.411Z,99.90
2019-04-28T23:55:20.461Z,99.90
2019-04-28T23:57:49.664Z,99.90
